sensor_id;sensor_type;location;lat;lon;timestamp;pressure;altitude;pressure_sealevel;temperature;humidity
58385;BME280;44185;47.844;8.966;2023-05-15T00:00:58;95814.16;;;8.41;100.00
58385;BME280;44185;47.844;8.966;2023-05-15T00:03:23;95814.16;;;8.41;100.00
58385;BME280;44185;47.844;8.966;2023-05-15T00:05:51;95810.72;;;8.41;100.00
58385;BME280;44185;47.844;8.966;2023-05-15T00:08:16;95809.72;;;8.42;100.00
58385;BME280;44185;47.844;8.966;2023-05-15T00:10:42;95809.16;;;8.38;100.00
58385;BME280;44185;47.844;8.966;2023-05-15T00:13:07;95807.28;;;8.29;100.00
58385;BME280;44185;47.844;8.966;2023-05-15T00:15:32;95803.94;;;8.27;100.00
58385;BME280;44185;47.844;8.966;2023-05-15T00:17:58;95797.28;;;8.22;100.00
58385;BME280;44185;47.844;8.966;2023-05-15T00:20:23;95800.56;;;8.15;100.00
58385;BME280;44185;47.844;8.966;2023-05-15T00:22:51;95803.03;;;8.16;100.00
58385;BME280;44185;47.844;8.966;2023-05-15T00:25:16;95797.56;;;8.08;100.00
58385;BME280;44185;47.844;8.966;2023-05-15T00:27:42;95796.63;;;8.09;100.00
58385;BME280;44185;47.844;8.966;2023-05-15T00:30:08;95800.59;;;8.03;100.00
58385;BME280;44185;47.844;8.966;2023-05-15T00:32:34;95803.22;;;8.03;100.00
58385;BME280;44185;47.844;8.966;2023-05-15T00:34:59;95806.72;;;8.04;100.00
58385;BME280;44185;47.844;8.966;2023-05-15T00:37:25;95801.47;;;7.92;100.00
58385;BME280;44185;47.844;8.966;2023-05-15T00:39:52;95805.84;;;7.82;100.00
58385;BME280;44185;47.844;8.966;2023-05-15T00:42:18;95798.63;;;7.84;100.00
58385;BME280;44185;47.844;8.966;2023-05-15T00:44:43;95799.63;;;7.83;100.00
58385;BME280;44185;47.844;8.966;2023-05-15T00:47:10;95796.25;;;7.81;100.00
58385;BME280;44185;47.844;8.966;2023-05-15T00:49:36;95792.41;;;7.85;100.00
58385;BME280;44185;47.844;8.966;2023-05-15T00:52:02;95790.06;;;7.70;100.00
58385;BME280;44185;47.844;8.966;2023-05-15T00:54:28;95788.91;;;7.63;100.00
58385;BME280;44185;47.844;8.966;2023-05-15T00:56:56;95794.19;;;7.51;100.00
58385;BME280;44185;47.844;8.966;2023-05-15T01:01:49;95785.31;;;7.64;100.00
58385;BME280;44185;47.844;8.966;2023-05-15T01:04:15;95782.75;;;7.74;100.00
58385;BME280;44185;47.844;8.966;2023-05-15T01:06:40;95789.38;;;7.68;100.00
58385;BME280;44185;47.844;8.966;2023-05-15T01:09:06;95781.94;;;7.62;100.00
58385;BME280;44185;47.844;8.966;2023-05-15T01:11:34;95785.09;;;7.55;100.00
58385;BME280;44185;47.844;8.966;2023-05-15T01:14:04;95791.53;;;7.63;100.00
58385;BME280;44185;47.844;8.966;2023-05-15T01:16:30;95784.34;;;7.65;100.00
58385;BME280;44185;47.844;8.966;2023-05-15T01:18:56;95793.69;;;7.69;100.00
58385;BME280;44185;47.844;8.966;2023-05-15T01:21:53;95791.50;;;7.74;100.00
58385;BME280;44185;47.844;8.966;2023-05-15T01:24:37;95786.69;;;7.79;100.00
58385;BME280;44185;47.844;8.966;2023-05-15T01:27:15;95790.53;;;7.75;100.00
58385;BME280;44185;47.844;8.966;2023-05-15T01:29:48;95790.75;;;7.84;100.00
58385;BME280;44185;47.844;8.966;2023-05-15T01:32:18;95793.44;;;7.94;100.00
58385;BME280;44185;47.844;8.966;2023-05-15T01:34:47;95794.16;;;7.96;100.00
58385;BME280;44185;47.844;8.966;2023-05-15T01:37:18;95802.06;;;7.96;100.00
58385;BME280;44185;47.844;8.966;2023-05-15T01:39:48;95796.06;;;7.94;100.00
58385;BME280;44185;47.844;8.966;2023-05-15T01:42:19;95798.59;;;7.95;100.00
58385;BME280;44185;47.844;8.966;2023-05-15T01:44:52;95797.75;;;7.95;100.00
58385;BME280;44185;47.844;8.966;2023-05-15T01:47:34;95796.22;;;7.92;100.00
58385;BME280;44185;47.844;8.966;2023-05-15T01:50:01;95801.00;;;7.98;100.00
58385;BME280;44185;47.844;8.966;2023-05-15T01:52:31;95798.22;;;8.00;100.00
58385;BME280;44185;47.844;8.966;2023-05-15T01:54:59;95796.41;;;8.00;100.00
58385;BME280;44185;47.844;8.966;2023-05-15T01:57:27;95793.41;;;8.05;100.00
58385;BME280;44185;47.844;8.966;2023-05-15T01:59:53;95790.81;;;8.15;100.00
58385;BME280;44185;47.844;8.966;2023-05-15T02:02:19;95794.75;;;8.21;100.00
58385;BME280;44185;47.844;8.966;2023-05-15T02:04:47;95801.31;;;8.27;100.00
58385;BME280;44185;47.844;8.966;2023-05-15T02:07:13;95793.78;;;8.22;100.00
58385;BME280;44185;47.844;8.966;2023-05-15T02:09:40;95784.78;;;8.25;100.00
58385;BME280;44185;47.844;8.966;2023-05-15T02:12:07;95794.25;;;8.27;100.00
58385;BME280;44185;47.844;8.966;2023-05-15T02:14:35;95792.44;;;8.28;100.00
58385;BME280;44185;47.844;8.966;2023-05-15T02:17:01;95789.28;;;8.34;100.00
58385;BME280;44185;47.844;8.966;2023-05-15T02:19:26;95790.81;;;8.37;100.00
58385;BME280;44185;47.844;8.966;2023-05-15T02:21:52;95788.19;;;8.37;100.00
58385;BME280;44185;47.844;8.966;2023-05-15T02:24:17;95793.25;;;8.28;100.00
58385;BME280;44185;47.844;8.966;2023-05-15T02:26:49;95798.97;;;8.33;100.00
58385;BME280;44185;47.844;8.966;2023-05-15T02:29:18;95796.19;;;8.25;100.00
58385;BME280;44185;47.844;8.966;2023-05-15T02:31:51;95795.19;;;8.26;100.00
58385;BME280;44185;47.844;8.966;2023-05-15T02:34:27;95795.53;;;8.33;100.00
58385;BME280;44185;47.844;8.966;2023-05-15T02:36:57;95797.19;;;8.34;100.00
58385;BME280;44185;47.844;8.966;2023-05-15T02:39:26;95795.00;;;8.39;100.00
58385;BME280;44185;47.844;8.966;2023-05-15T02:41:52;95799.13;;;8.32;100.00
58385;BME280;44185;47.844;8.966;2023-05-15T02:44:18;95791.06;;;8.33;100.00
58385;BME280;44185;47.844;8.966;2023-05-15T02:46:46;95786.53;;;8.36;100.00
58385;BME280;44185;47.844;8.966;2023-05-15T02:49:12;95785.69;;;8.35;100.00
58385;BME280;44185;47.844;8.966;2023-05-15T02:51:38;95785.25;;;8.30;100.00
58385;BME280;44185;47.844;8.966;2023-05-15T02:54:04;95778.03;;;8.32;100.00
58385;BME280;44185;47.844;8.966;2023-05-15T02:56:30;95780.09;;;8.28;100.00
58385;BME280;44185;47.844;8.966;2023-05-15T02:58:55;95782.41;;;8.21;100.00
58385;BME280;44185;47.844;8.966;2023-05-15T03:01:21;95785.31;;;8.18;100.00
58385;BME280;44185;47.844;8.966;2023-05-15T03:03:47;95788.91;;;8.17;100.00
58385;BME280;44185;47.844;8.966;2023-05-15T03:06:13;95778.09;;;8.20;100.00
58385;BME280;44185;47.844;8.966;2023-05-15T03:08:38;95777.97;;;8.22;100.00
58385;BME280;44185;47.844;8.966;2023-05-15T03:11:04;95788.63;;;8.20;100.00
58385;BME280;44185;47.844;8.966;2023-05-15T03:13:30;95773.16;;;8.27;100.00
58385;BME280;44185;47.844;8.966;2023-05-15T03:15:55;95769.38;;;8.20;100.00
58385;BME280;44185;47.844;8.966;2023-05-15T03:18:21;95773.09;;;8.17;100.00
58385;BME280;44185;47.844;8.966;2023-05-15T03:20:50;95780.56;;;8.12;100.00
58385;BME280;44185;47.844;8.966;2023-05-15T03:23:16;95770.66;;;8.04;100.00
58385;BME280;44185;47.844;8.966;2023-05-15T03:25:41;95762.75;;;8.04;100.00
58385;BME280;44185;47.844;8.966;2023-05-15T03:28:06;95765.50;;;8.03;100.00
58385;BME280;44185;47.844;8.966;2023-05-15T03:30:32;95760.94;;;8.05;100.00
58385;BME280;44185;47.844;8.966;2023-05-15T03:32:57;95768.09;;;8.14;100.00
58385;BME280;44185;47.844;8.966;2023-05-15T03:35:23;95768.09;;;8.14;100.00
58385;BME280;44185;47.844;8.966;2023-05-15T03:37:50;95761.03;;;8.15;100.00
58385;BME280;44185;47.844;8.966;2023-05-15T03:40:15;95765.63;;;8.01;100.00
58385;BME280;44185;47.844;8.966;2023-05-15T03:42:40;95765.88;;;7.98;100.00
58385;BME280;44185;47.844;8.966;2023-05-15T03:45:07;95757.09;;;7.87;100.00
58385;BME280;44185;47.844;8.966;2023-05-15T03:47:33;95764.00;;;7.88;100.00
58385;BME280;44185;47.844;8.966;2023-05-15T03:49:58;95767.69;;;7.97;100.00
58385;BME280;44185;47.844;8.966;2023-05-15T03:52:24;95763.38;;;7.96;100.00
58385;BME280;44185;47.844;8.966;2023-05-15T03:54:50;95765.44;;;7.93;100.00
58385;BME280;44185;47.844;8.966;2023-05-15T03:57:16;95775.28;;;7.90;100.00
58385;BME280;44185;47.844;8.966;2023-05-15T03:59:41;95767.88;;;7.84;100.00
58385;BME280;44185;47.844;8.966;2023-05-15T04:02:07;95773.34;;;7.93;100.00
58385;BME280;44185;47.844;8.966;2023-05-15T04:04:32;95771.41;;;7.95;100.00
58385;BME280;44185;47.844;8.966;2023-05-15T04:06:58;95773.09;;;7.96;100.00
58385;BME280;44185;47.844;8.966;2023-05-15T04:09:23;95778.22;;;7.97;100.00
58385;BME280;44185;47.844;8.966;2023-05-15T04:11:50;95776.19;;;8.01;100.00
58385;BME280;44185;47.844;8.966;2023-05-15T04:14:16;95782.16;;;8.03;100.00
58385;BME280;44185;47.844;8.966;2023-05-15T04:16:41;95777.72;;;8.04;100.00
58385;BME280;44185;47.844;8.966;2023-05-15T04:19:07;95782.91;;;7.94;100.00
58385;BME280;44185;47.844;8.966;2023-05-15T04:21:32;95780.41;;;7.92;100.00
58385;BME280;44185;47.844;8.966;2023-05-15T04:23:58;95786.63;;;7.91;100.00
58385;BME280;44185;47.844;8.966;2023-05-15T04:26:23;95794.28;;;7.94;100.00
58385;BME280;44185;47.844;8.966;2023-05-15T04:28:50;95791.78;;;7.93;100.00
58385;BME280;44185;47.844;8.966;2023-05-15T04:31:16;95790.00;;;7.93;100.00
58385;BME280;44185;47.844;8.966;2023-05-15T04:33:41;95794.81;;;7.88;100.00
58385;BME280;44185;47.844;8.966;2023-05-15T04:36:08;95785.94;;;7.89;100.00
58385;BME280;44185;47.844;8.966;2023-05-15T04:38:33;95781.88;;;7.85;100.00
58385;BME280;44185;47.844;8.966;2023-05-15T04:40:59;95782.34;;;7.90;100.00
58385;BME280;44185;47.844;8.966;2023-05-15T04:43:24;95790.31;;;8.00;100.00
58385;BME280;44185;47.844;8.966;2023-05-15T04:45:51;95789.34;;;8.01;100.00
58385;BME280;44185;47.844;8.966;2023-05-15T04:48:16;95791.41;;;7.97;100.00
58385;BME280;44185;47.844;8.966;2023-05-15T04:50:42;95789.09;;;8.04;100.00
58385;BME280;44185;47.844;8.966;2023-05-15T04:53:07;95791.09;;;8.12;100.00
58385;BME280;44185;47.844;8.966;2023-05-15T04:55:33;95788.91;;;8.17;100.00
58385;BME280;44185;47.844;8.966;2023-05-15T04:57:58;95798.47;;;8.18;100.00
58385;BME280;44185;47.844;8.966;2023-05-15T05:00:24;95806.63;;;8.15;100.00
58385;BME280;44185;47.844;8.966;2023-05-15T05:02:53;95814.28;;;8.18;100.00
58385;BME280;44185;47.844;8.966;2023-05-15T05:05:21;95819.13;;;8.13;100.00
58385;BME280;44185;47.844;8.966;2023-05-15T05:07:47;95813.88;;;8.01;100.00
58385;BME280;44185;47.844;8.966;2023-05-15T05:10:15;95818.44;;;7.99;100.00
58385;BME280;44185;47.844;8.966;2023-05-15T05:12:41;95818.69;;;7.96;100.00
58385;BME280;44185;47.844;8.966;2023-05-15T05:15:08;95819.03;;;8.03;100.00
58385;BME280;44185;47.844;8.966;2023-05-15T05:17:33;95814.09;;;8.10;100.00
58385;BME280;44185;47.844;8.966;2023-05-15T05:20:00;95824.06;;;8.06;100.00
58385;BME280;44185;47.844;8.966;2023-05-15T05:22:26;95825.22;;;8.14;100.00
58385;BME280;44185;47.844;8.966;2023-05-15T05:24:51;95829.09;;;8.09;100.00
58385;BME280;44185;47.844;8.966;2023-05-15T05:27:19;95834.69;;;8.16;100.00
58385;BME280;44185;47.844;8.966;2023-05-15T05:29:44;95831.59;;;8.11;100.00
58385;BME280;44185;47.844;8.966;2023-05-15T05:32:10;95826.31;;;8.11;100.00
58385;BME280;44185;47.844;8.966;2023-05-15T05:34:35;95824.53;;;8.11;100.00
58385;BME280;44185;47.844;8.966;2023-05-15T05:37:02;95828.06;;;8.22;100.00
58385;BME280;44185;47.844;8.966;2023-05-15T05:39:28;95828.91;;;8.22;100.00
58385;BME280;44185;47.844;8.966;2023-05-15T05:41:53;95821.25;;;8.19;100.00
58385;BME280;44185;47.844;8.966;2023-05-15T05:44:19;95809.06;;;8.28;100.00
58385;BME280;44185;47.844;8.966;2023-05-15T05:46:45;95819.31;;;8.21;100.00
58385;BME280;44185;47.844;8.966;2023-05-15T05:49:10;95823.81;;;8.09;100.00
58385;BME280;44185;47.844;8.966;2023-05-15T05:51:36;95823.03;;;8.19;100.00
58385;BME280;44185;47.844;8.966;2023-05-15T05:54:02;95816.09;;;8.18;100.00
58385;BME280;44185;47.844;8.966;2023-05-15T05:56:28;95814.38;;;8.07;100.00
58385;BME280;44185;47.844;8.966;2023-05-15T05:58:53;95811.13;;;8.03;100.00
58385;BME280;44185;47.844;8.966;2023-05-15T06:01:19;95812.19;;;8.12;100.00
58385;BME280;44185;47.844;8.966;2023-05-15T06:03:45;95810.81;;;8.18;100.00
58385;BME280;44185;47.844;8.966;2023-05-15T06:06:25;95809.47;;;8.23;100.00
58385;BME280;44185;47.844;8.966;2023-05-15T06:08:51;95810.06;;;8.27;100.00
58385;BME280;44185;47.844;8.966;2023-05-15T06:11:18;95818.28;;;8.34;100.00
58385;BME280;44185;47.844;8.966;2023-05-15T06:13:43;95808.53;;;8.46;100.00
58385;BME280;44185;47.844;8.966;2023-05-15T06:16:08;95811.72;;;8.50;100.00
58385;BME280;44185;47.844;8.966;2023-05-15T06:18:34;95813.00;;;8.55;100.00
58385;BME280;44185;47.844;8.966;2023-05-15T06:21:00;95827.69;;;8.70;100.00
58385;BME280;44185;47.844;8.966;2023-05-15T06:23:25;95816.03;;;8.72;100.00
58385;BME280;44185;47.844;8.966;2023-05-15T06:25:50;95825.50;;;8.75;100.00
58385;BME280;44185;47.844;8.966;2023-05-15T06:28:17;95824.22;;;8.69;100.00
58385;BME280;44185;47.844;8.966;2023-05-15T06:30:43;95820.22;;;8.75;100.00
58385;BME280;44185;47.844;8.966;2023-05-15T06:33:08;95827.03;;;8.77;100.00
58385;BME280;44185;47.844;8.966;2023-05-15T06:35:34;95827.34;;;8.84;100.00
58385;BME280;44185;47.844;8.966;2023-05-15T06:38:00;95834.59;;;8.92;100.00
58385;BME280;44185;47.844;8.966;2023-05-15T06:40:25;95831.84;;;8.94;100.00
58385;BME280;44185;47.844;8.966;2023-05-15T06:42:51;95832.13;;;9.00;100.00
58385;BME280;44185;47.844;8.966;2023-05-15T06:45:17;95830.72;;;8.96;100.00
58385;BME280;44185;47.844;8.966;2023-05-15T06:47:43;95828.34;;;8.93;100.00
58385;BME280;44185;47.844;8.966;2023-05-15T06:50:09;95833.88;;;8.90;100.00
58385;BME280;44185;47.844;8.966;2023-05-15T06:52:34;95838.38;;;8.99;100.00
58385;BME280;44185;47.844;8.966;2023-05-15T06:55:00;95838.75;;;8.95;100.00
58385;BME280;44185;47.844;8.966;2023-05-15T06:57:25;95842.13;;;8.97;100.00
58385;BME280;44185;47.844;8.966;2023-05-15T06:59:51;95835.44;;;8.93;100.00
58385;BME280;44185;47.844;8.966;2023-05-15T07:02:17;95837.66;;;8.97;100.00
58385;BME280;44185;47.844;8.966;2023-05-15T07:04:43;95842.00;;;8.98;100.00
58385;BME280;44185;47.844;8.966;2023-05-15T07:07:08;95843.22;;;8.94;100.00
58385;BME280;44185;47.844;8.966;2023-05-15T07:09:34;95845.59;;;8.97;100.00
58385;BME280;44185;47.844;8.966;2023-05-15T07:12:00;95838.47;;;8.88;100.00
58385;BME280;44185;47.844;8.966;2023-05-15T07:14:25;95841.25;;;8.86;100.00
58385;BME280;44185;47.844;8.966;2023-05-15T07:16:51;95841.94;;;8.88;100.00
58385;BME280;44185;47.844;8.966;2023-05-15T07:19:18;95841.81;;;8.90;100.00
58385;BME280;44185;47.844;8.966;2023-05-15T07:21:43;95841.09;;;8.88;100.00
58385;BME280;44185;47.844;8.966;2023-05-15T07:24:09;95844.34;;;8.92;100.00
58385;BME280;44185;47.844;8.966;2023-05-15T07:26:35;95841.56;;;8.93;100.00
58385;BME280;44185;47.844;8.966;2023-05-15T07:29:00;95844.34;;;8.92;100.00
58385;BME280;44185;47.844;8.966;2023-05-15T07:31:25;95841.41;;;8.95;100.00
58385;BME280;44185;47.844;8.966;2023-05-15T07:33:51;95848.53;;;9.04;100.00
58385;BME280;44185;47.844;8.966;2023-05-15T07:36:18;95846.47;;;9.08;100.00
58385;BME280;44185;47.844;8.966;2023-05-15T07:38:43;95854.00;;;9.12;100.00
58385;BME280;44185;47.844;8.966;2023-05-15T07:41:08;95849.00;;;9.19;100.00
58385;BME280;44185;47.844;8.966;2023-05-15T07:43:34;95848.34;;;9.27;100.00
58385;BME280;44185;47.844;8.966;2023-05-15T07:46:00;95851.41;;;9.32;100.00
58385;BME280;44185;47.844;8.966;2023-05-15T07:48:25;95843.50;;;9.42;100.00
58385;BME280;44185;47.844;8.966;2023-05-15T07:50:50;95843.84;;;9.49;100.00
58385;BME280;44185;47.844;8.966;2023-05-15T07:53:17;95850.66;;;9.52;100.00
58385;BME280;44185;47.844;8.966;2023-05-15T07:55:43;95849.13;;;9.59;100.00
58385;BME280;44185;47.844;8.966;2023-05-15T07:58:08;95848.72;;;9.64;100.00
58385;BME280;44185;47.844;8.966;2023-05-15T08:00:34;95849.97;;;9.70;100.00
58385;BME280;44185;47.844;8.966;2023-05-15T08:02:59;95856.25;;;9.78;100.00
58385;BME280;44185;47.844;8.966;2023-05-15T08:05:25;95853.63;;;9.68;100.00
58385;BME280;44185;47.844;8.966;2023-05-15T08:07:51;95851.41;;;9.84;100.00
58385;BME280;44185;47.844;8.966;2023-05-15T08:10:18;95845.69;;;9.98;100.00
58385;BME280;44185;47.844;8.966;2023-05-15T08:12:43;95848.75;;;10.04;100.00
58385;BME280;44185;47.844;8.966;2023-05-15T08:15:09;95853.22;;;10.13;100.00
58385;BME280;44185;47.844;8.966;2023-05-15T08:17:34;95844.03;;;10.17;100.00
58385;BME280;44185;47.844;8.966;2023-05-15T08:20:00;95844.59;;;10.31;100.00
58385;BME280;44185;47.844;8.966;2023-05-15T08:22:25;95839.72;;;10.26;100.00
58385;BME280;44185;47.844;8.966;2023-05-15T08:24:51;95846.41;;;10.20;100.00
58385;BME280;44185;47.844;8.966;2023-05-15T08:27:17;95847.94;;;10.13;100.00
58385;BME280;44185;47.844;8.966;2023-05-15T08:29:43;95852.25;;;10.14;100.00
58385;BME280;44185;47.844;8.966;2023-05-15T08:32:08;95846.13;;;10.04;100.00
58385;BME280;44185;47.844;8.966;2023-05-15T08:34:34;95847.38;;;10.19;100.00
58385;BME280;44185;47.844;8.966;2023-05-15T08:37:00;95852.66;;;10.29;100.00
58385;BME280;44185;47.844;8.966;2023-05-15T08:39:25;95854.34;;;10.40;100.00
58385;BME280;44185;47.844;8.966;2023-05-15T08:41:55;95861.31;;;10.21;100.00
58385;BME280;44185;47.844;8.966;2023-05-15T08:44:23;95847.25;;;10.21;100.00
58385;BME280;44185;47.844;8.966;2023-05-15T08:46:51;95848.22;;;10.20;100.00
58385;BME280;44185;47.844;8.966;2023-05-15T08:49:20;95842.63;;;10.33;100.00
58385;BME280;44185;47.844;8.966;2023-05-15T08:51:49;95850.97;;;10.38;100.00
58385;BME280;44185;47.844;8.966;2023-05-15T08:54:15;95836.50;;;10.42;100.00
58385;BME280;44185;47.844;8.966;2023-05-15T08:56:41;95841.66;;;10.44;100.00
58385;BME280;44185;47.844;8.966;2023-05-15T08:59:06;95844.00;;;10.47;100.00
58385;BME280;44185;47.844;8.966;2023-05-15T09:01:34;95838.03;;;10.45;100.00
58385;BME280;44185;47.844;8.966;2023-05-15T09:04:00;95836.25;;;10.26;100.00
58385;BME280;44185;47.844;8.966;2023-05-15T09:06:26;95834.56;;;10.34;100.00
58385;BME280;44185;47.844;8.966;2023-05-15T09:08:54;95838.31;;;10.42;100.00
58385;BME280;44185;47.844;8.966;2023-05-15T09:11:22;95838.59;;;10.39;100.00
58385;BME280;44185;47.844;8.966;2023-05-15T09:13:48;95835.94;;;10.68;100.00
58385;BME280;44185;47.844;8.966;2023-05-15T09:16:13;95832.00;;;10.73;100.00
58385;BME280;44185;47.844;8.966;2023-05-15T09:18:40;95832.72;;;10.75;100.00
58385;BME280;44185;47.844;8.966;2023-05-15T09:21:21;95839.19;;;11.00;100.00
58385;BME280;44185;47.844;8.966;2023-05-15T09:23:46;95839.97;;;11.11;100.00
58385;BME280;44185;47.844;8.966;2023-05-15T09:26:12;95842.53;;;11.31;100.00
58385;BME280;44185;47.844;8.966;2023-05-15T09:28:38;95832.75;;;11.03;100.00
58385;BME280;44185;47.844;8.966;2023-05-15T09:31:04;95833.28;;;11.07;100.00
58385;BME280;44185;47.844;8.966;2023-05-15T09:33:31;95828.38;;;11.22;100.00
58385;BME280;44185;47.844;8.966;2023-05-15T09:35:59;95821.91;;;11.53;100.00
58385;BME280;44185;47.844;8.966;2023-05-15T09:38:24;95826.72;;;11.39;100.00
58385;BME280;44185;47.844;8.966;2023-05-15T09:41:00;95826.84;;;11.66;100.00
58385;BME280;44185;47.844;8.966;2023-05-15T09:43:27;95825.72;;;11.68;100.00
58385;BME280;44185;47.844;8.966;2023-05-15T09:45:53;95828.16;;;11.80;100.00
58385;BME280;44185;47.844;8.966;2023-05-15T09:48:19;95819.53;;;11.78;100.00
58385;BME280;44185;47.844;8.966;2023-05-15T09:50:46;95825.06;;;11.85;100.00
58385;BME280;44185;47.844;8.966;2023-05-15T09:53:13;95826.38;;;12.17;100.00
58385;BME280;44185;47.844;8.966;2023-05-15T09:55:40;95826.13;;;12.10;100.00
58385;BME280;44185;47.844;8.966;2023-05-15T09:58:07;95828.75;;;12.65;100.00
58385;BME280;44185;47.844;8.966;2023-05-15T10:00:33;95825.97;;;12.75;100.00
58385;BME280;44185;47.844;8.966;2023-05-15T10:03:00;95822.34;;;12.50;100.00
58385;BME280;44185;47.844;8.966;2023-05-15T10:05:26;95815.47;;;12.65;100.00
58385;BME280;44185;47.844;8.966;2023-05-15T10:07:53;95821.97;;;12.71;100.00
58385;BME280;44185;47.844;8.966;2023-05-15T10:10:20;95817.84;;;12.50;100.00
58385;BME280;44185;47.844;8.966;2023-05-15T10:12:46;95811.09;;;12.56;100.00
58385;BME280;44185;47.844;8.966;2023-05-15T10:15:12;95811.44;;;12.16;100.00
58385;BME280;44185;47.844;8.966;2023-05-15T10:17:39;95809.88;;;12.50;100.00
58385;BME280;44185;47.844;8.966;2023-05-15T10:20:07;95802.72;;;12.24;100.00
58385;BME280;44185;47.844;8.966;2023-05-15T10:22:36;95798.88;;;12.37;100.00
58385;BME280;44185;47.844;8.966;2023-05-15T10:25:07;95792.31;;;12.76;100.00
58385;BME280;44185;47.844;8.966;2023-05-15T10:27:34;95780.28;;;12.98;100.00
58385;BME280;44185;47.844;8.966;2023-05-15T10:30:03;95783.28;;;13.04;100.00
58385;BME280;44185;47.844;8.966;2023-05-15T10:32:29;95777.13;;;13.38;100.00
58385;BME280;44185;47.844;8.966;2023-05-15T10:34:56;95777.41;;;13.87;100.00
58385;BME280;44185;47.844;8.966;2023-05-15T10:37:21;95783.19;;;13.65;100.00
58385;BME280;44185;47.844;8.966;2023-05-15T10:39:48;95777.22;;;13.63;100.00
58385;BME280;44185;47.844;8.966;2023-05-15T10:42:15;95763.78;;;13.90;100.00
58385;BME280;44185;47.844;8.966;2023-05-15T10:44:42;95769.09;;;13.82;100.00
58385;BME280;44185;47.844;8.966;2023-05-15T10:47:08;95762.47;;;14.19;100.00
58385;BME280;44185;47.844;8.966;2023-05-15T10:49:33;95756.97;;;13.79;100.00
58385;BME280;44185;47.844;8.966;2023-05-15T10:51:59;95766.97;;;13.85;100.00
58385;BME280;44185;47.844;8.966;2023-05-15T10:54:24;95760.38;;;13.54;100.00
58385;BME280;44185;47.844;8.966;2023-05-15T10:56:50;95749.47;;;13.66;100.00
58385;BME280;44185;47.844;8.966;2023-05-15T10:59:16;95755.38;;;13.51;100.00
58385;BME280;44185;47.844;8.966;2023-05-15T11:01:42;95760.38;;;13.54;100.00
58385;BME280;44185;47.844;8.966;2023-05-15T11:04:10;95753.56;;;13.52;100.00
58385;BME280;44185;47.844;8.966;2023-05-15T11:06:36;95752.69;;;13.26;100.00
58385;BME280;44185;47.844;8.966;2023-05-15T11:09:36;95753.69;;;13.33;100.00
58385;BME280;44185;47.844;8.966;2023-05-15T11:12:03;95753.41;;;13.45;100.00
58385;BME280;44185;47.844;8.966;2023-05-15T11:14:30;95750.41;;;13.48;100.00
58385;BME280;44185;47.844;8.966;2023-05-15T11:16:58;95755.38;;;13.43;100.00
58385;BME280;44185;47.844;8.966;2023-05-15T11:19:30;95750.63;;;13.11;100.00
58385;BME280;44185;47.844;8.966;2023-05-15T11:21:56;95752.47;;;13.11;100.00
58385;BME280;44185;47.844;8.966;2023-05-15T11:24:25;95752.13;;;13.06;100.00
58385;BME280;44185;47.844;8.966;2023-05-15T11:26:51;95752.88;;;12.89;100.00
58385;BME280;44185;47.844;8.966;2023-05-15T11:29:22;95753.06;;;12.61;100.00
58385;BME280;44185;47.844;8.966;2023-05-15T11:31:47;95760.09;;;12.71;100.00
58385;BME280;44185;47.844;8.966;2023-05-15T11:34:14;95750.19;;;12.81;100.00
58385;BME280;44185;47.844;8.966;2023-05-15T11:36:41;95752.16;;;12.79;100.00
58385;BME280;44185;47.844;8.966;2023-05-15T11:39:09;95752.38;;;12.32;100.00
58385;BME280;44185;47.844;8.966;2023-05-15T11:41:34;95752.31;;;12.06;100.00
58385;BME280;44185;47.844;8.966;2023-05-15T11:44:01;95745.22;;;12.06;100.00
58385;BME280;44185;47.844;8.966;2023-05-15T11:46:26;95743.53;;;12.05;100.00
58385;BME280;44185;47.844;8.966;2023-05-15T11:48:53;95737.94;;;11.90;100.00
58385;BME280;44185;47.844;8.966;2023-05-15T11:51:22;95741.88;;;12.04;100.00
58385;BME280;44185;47.844;8.966;2023-05-15T11:53:48;95742.75;;;12.13;100.00
58385;BME280;44185;47.844;8.966;2023-05-15T11:56:17;95746.16;;;12.15;100.00
58385;BME280;44185;47.844;8.966;2023-05-15T11:58:43;95741.94;;;12.31;100.00
58385;BME280;44185;47.844;8.966;2023-05-15T12:01:09;95744.38;;;12.24;100.00
58385;BME280;44185;47.844;8.966;2023-05-15T12:03:35;95746.16;;;12.15;100.00
58385;BME280;44185;47.844;8.966;2023-05-15T12:06:01;95743.38;;;12.25;100.00
58385;BME280;44185;47.844;8.966;2023-05-15T12:08:31;95743.38;;;12.25;100.00
58385;BME280;44185;47.844;8.966;2023-05-15T12:10:58;95734.00;;;12.12;100.00
58385;BME280;44185;47.844;8.966;2023-05-15T12:13:23;95730.25;;;12.23;100.00
58385;BME280;44185;47.844;8.966;2023-05-15T12:15:49;95736.03;;;12.19;100.00
58385;BME280;44185;47.844;8.966;2023-05-15T12:18:15;95725.78;;;12.24;100.00
58385;BME280;44185;47.844;8.966;2023-05-15T12:20:40;95734.38;;;11.81;100.00
58385;BME280;44185;47.844;8.966;2023-05-15T12:23:07;95740.81;;;11.78;100.00
58385;BME280;44185;47.844;8.966;2023-05-15T12:25:35;95740.84;;;11.97;100.00
58385;BME280;44185;47.844;8.966;2023-05-15T12:28:02;95749.47;;;12.17;100.00
58385;BME280;44185;47.844;8.966;2023-05-15T12:32:59;95752.56;;;12.31;100.00
58385;BME280;44185;47.844;8.966;2023-05-15T12:35:25;95752.44;;;12.41;100.00
58385;BME280;44185;47.844;8.966;2023-05-15T12:37:50;95756.25;;;12.38;100.00
58385;BME280;44185;47.844;8.966;2023-05-15T12:40:19;95759.44;;;12.23;100.00
58385;BME280;44185;47.844;8.966;2023-05-15T12:42:50;95759.84;;;12.29;100.00
58385;BME280;44185;47.844;8.966;2023-05-15T12:45:17;95761.41;;;12.21;100.00
58385;BME280;44185;47.844;8.966;2023-05-15T12:47:44;95756.34;;;12.28;100.00
58385;BME280;44185;47.844;8.966;2023-05-15T12:50:14;95758.84;;;12.56;100.00
58385;BME280;44185;47.844;8.966;2023-05-15T12:52:45;95758.59;;;12.68;100.00
58385;BME280;44185;47.844;8.966;2023-05-15T12:55:14;95760.31;;;12.86;100.00
58385;BME280;44185;47.844;8.966;2023-05-15T12:57:40;95759.44;;;12.77;100.00
58385;BME280;44185;47.844;8.966;2023-05-15T13:00:09;95750.03;;;12.56;100.00